sensor_id;sensor_type;location;lat;lon;timestamp;pressure;altitude;pressure_sealevel;temperature;humidity
52625;BME280;38519;52.540;13.410;2022-11-22T00:02:15;99601.78;;;-2.46;100.00
52625;BME280;38519;52.540;13.410;2022-11-22T00:04:40;99604.78;;;-2.50;100.00
52625;BME280;38519;52.540;13.410;2022-11-22T00:07:06;99600.91;;;-2.47;100.00
52625;BME280;38519;52.540;13.410;2022-11-22T00:09:32;99598.38;;;-2.38;100.00
52625;BME280;38519;52.540;13.410;2022-11-22T00:11:58;99592.38;;;-2.39;100.00
52625;BME280;38519;52.540;13.410;2022-11-22T00:14:25;99601.22;;;-2.44;100.00
52625;BME280;38519;52.540;13.410;2022-11-22T00:16:50;99597.38;;;-2.31;100.00
52625;BME280;38519;52.540;13.410;2022-11-22T00:19:15;99584.75;;;-2.30;100.00
52625;BME280;38519;52.540;13.410;2022-11-22T00:21:41;99591.41;;;-2.48;100.00
52625;BME280;38519;52.540;13.410;2022-11-22T00:24:10;99584.94;;;-2.44;100.00
52625;BME280;38519;52.540;13.410;2022-11-22T00:26:36;99578.06;;;-2.45;100.00
52625;BME280;38519;52.540;13.410;2022-11-22T00:29:01;99573.44;;;-2.41;100.00
52625;BME280;38519;52.540;13.410;2022-11-22T00:31:27;99569.00;;;-2.50;100.00
52625;BME280;38519;52.540;13.410;2022-11-22T00:33:52;99567.25;;;-2.59;100.00
52625;BME280;38519;52.540;13.410;2022-11-22T00:36:17;99560.94;;;-2.62;100.00
52625;BME280;38519;52.540;13.410;2022-11-22T00:38:43;99560.13;;;-2.70;100.00
52625;BME280;38519;52.540;13.410;2022-11-22T00:41:08;99551.72;;;-2.69;100.00
52625;BME280;38519;52.540;13.410;2022-11-22T00:43:34;99554.69;;;-2.73;100.00
52625;BME280;38519;52.540;13.410;2022-11-22T00:45:59;99554.69;;;-2.73;100.00
52625;BME280;38519;52.540;13.410;2022-11-22T00:48:25;99559.53;;;-2.67;100.00
52625;BME280;38519;52.540;13.410;2022-11-22T00:50:50;99557.56;;;-2.70;100.00
52625;BME280;38519;52.540;13.410;2022-11-22T00:53:16;99558.66;;;-2.68;100.00
52625;BME280;38519;52.540;13.410;2022-11-22T00:55:41;99560.56;;;-2.74;100.00
52625;BME280;38519;52.540;13.410;2022-11-22T00:58:07;99558.00;;;-2.74;100.00
52625;BME280;38519;52.540;13.410;2022-11-22T01:00:33;99565.66;;;-2.74;100.00
52625;BME280;38519;52.540;13.410;2022-11-22T01:02:58;99554.03;;;-2.63;100.00
52625;BME280;38519;52.540;13.410;2022-11-22T01:05:24;99554.44;;;-2.67;100.00
52625;BME280;38519;52.540;13.410;2022-11-22T01:07:49;99549.88;;;-2.70;100.00
52625;BME280;38519;52.540;13.410;2022-11-22T01:10:15;99558.22;;;-2.64;100.00
52625;BME280;38519;52.540;13.410;2022-11-22T01:12:40;99546.84;;;-2.75;100.00
52625;BME280;38519;52.540;13.410;2022-11-22T01:15:05;99545.31;;;-2.81;100.00
52625;BME280;38519;52.540;13.410;2022-11-22T01:17:31;99542.75;;;-2.81;100.00
52625;BME280;38519;52.540;13.410;2022-11-22T01:19:56;99541.00;;;-2.73;100.00
52625;BME280;38519;52.540;13.410;2022-11-22T01:22:22;99540.94;;;-2.82;100.00
52625;BME280;38519;52.540;13.410;2022-11-22T01:24:47;99540.47;;;-2.87;100.00
52625;BME280;38519;52.540;13.410;2022-11-22T01:27:13;99538.81;;;-2.86;100.00
52625;BME280;38519;52.540;13.410;2022-11-22T01:29:38;99538.56;;;-2.81;100.00
52625;BME280;38519;52.540;13.410;2022-11-22T01:32:03;99533.84;;;-2.85;100.00
52625;BME280;38519;52.540;13.410;2022-11-22T01:34:29;99535.84;;;-2.82;100.00
52625;BME280;38519;52.540;13.410;2022-11-22T01:36:55;99533.28;;;-2.82;100.00
52625;BME280;38519;52.540;13.410;2022-11-22T01:39:20;99536.97;;;-2.87;100.00
52625;BME280;38519;52.540;13.410;2022-11-22T01:41:45;99545.41;;;-2.88;100.00
52625;BME280;38519;52.540;13.410;2022-11-22T01:44:24;99546.31;;;-2.88;100.00
52625;BME280;38519;52.540;13.410;2022-11-22T01:46:54;99546.47;;;-2.86;100.00
52625;BME280;38519;52.540;13.410;2022-11-22T01:51:50;99557.69;;;-2.93;100.00
52625;BME280;38519;52.540;13.410;2022-11-22T01:54:18;99560.72;;;-2.88;100.00
52625;BME280;38519;52.540;13.410;2022-11-22T01:56:47;99555.34;;;-2.83;100.00
52625;BME280;38519;52.540;13.410;2022-11-22T01:59:15;99553.41;;;-2.85;100.00
52625;BME280;38519;52.540;13.410;2022-11-22T02:01:42;99547.97;;;-2.88;100.00
52625;BME280;38519;52.540;13.410;2022-11-22T02:04:08;99556.69;;;-2.86;100.00
52625;BME280;38519;52.540;13.410;2022-11-22T02:06:37;99558.34;;;-2.87;100.00
52625;BME280;38519;52.540;13.410;2022-11-22T02:09:08;99551.84;;;-2.92;100.00
52625;BME280;38519;52.540;13.410;2022-11-22T02:11:35;99547.97;;;-2.88;100.00
52625;BME280;38519;52.540;13.410;2022-11-22T02:14:02;99553.31;;;-2.94;100.00
52625;BME280;38519;52.540;13.410;2022-11-22T02:16:27;99554.88;;;-2.87;100.00
52625;BME280;38519;52.540;13.410;2022-11-22T02:18:53;99555.28;;;-2.91;100.00
52625;BME280;38519;52.540;13.410;2022-11-22T02:21:19;99553.63;;;-2.91;100.00
52625;BME280;38519;52.540;13.410;2022-11-22T02:24:18;99539.25;;;-2.90;100.00
52625;BME280;38519;52.540;13.410;2022-11-22T02:26:36;99539.88;;;-2.84;100.00
52625;BME280;38519;52.540;13.410;2022-11-22T02:29:03;99530.66;;;-2.91;100.00
52625;BME280;38519;52.540;13.410;2022-11-22T02:31:38;99532.19;;;-2.84;100.00
52625;BME280;38519;52.540;13.410;2022-11-22T02:34:03;99519.75;;;-2.81;100.00
52625;BME280;38519;52.540;13.410;2022-11-22T02:36:32;99518.13;;;-2.81;100.00
52625;BME280;38519;52.540;13.410;2022-11-22T02:39:00;99519.25;;;-2.86;100.00
52625;BME280;38519;52.540;13.410;2022-11-22T02:41:26;99512.25;;;-2.80;100.00
52625;BME280;38519;52.540;13.410;2022-11-22T02:43:52;99512.19;;;-2.88;100.00
52625;BME280;38519;52.540;13.410;2022-11-22T02:46:17;99510.88;;;-2.85;100.00
52625;BME280;38519;52.540;13.410;2022-11-22T02:48:46;99510.88;;;-2.85;100.00
52625;BME280;38519;52.540;13.410;2022-11-22T02:51:12;99502.88;;;-2.88;100.00
52625;BME280;38519;52.540;13.410;2022-11-22T02:53:41;99506.66;;;-2.84;100.00
52625;BME280;38519;52.540;13.410;2022-11-22T02:56:07;99513.19;;;-2.79;100.00
52625;BME280;38519;52.540;13.410;2022-11-22T02:58:32;99512.75;;;-2.75;100.00
52625;BME280;38519;52.540;13.410;2022-11-22T03:00:57;99505.34;;;-2.81;100.00
52625;BME280;38519;52.540;13.410;2022-11-22T03:03:23;99510.47;;;-2.81;100.00
52625;BME280;38519;52.540;13.410;2022-11-22T03:05:48;99508.06;;;-2.79;100.00
52625;BME280;38519;52.540;13.410;2022-11-22T03:08:14;99501.47;;;-2.77;100.00
52625;BME280;38519;52.540;13.410;2022-11-22T03:10:39;99499.22;;;-2.74;100.00
52625;BME280;38519;52.540;13.410;2022-11-22T03:13:04;99492.94;;;-2.69;100.00
52625;BME280;38519;52.540;13.410;2022-11-22T03:15:30;99494.13;;;-2.74;100.00
52625;BME280;38519;52.540;13.410;2022-11-22T03:17:59;99488.25;;;-2.73;100.00
52625;BME280;38519;52.540;13.410;2022-11-22T03:20:25;99493.09;;;-2.67;100.00
52625;BME280;38519;52.540;13.410;2022-11-22T03:22:51;99499.72;;;-2.69;100.00
52625;BME280;38519;52.540;13.410;2022-11-22T03:25:16;99499.75;;;-2.61;100.00
52625;BME280;38519;52.540;13.410;2022-11-22T03:27:42;99494.47;;;-2.62;100.00
52625;BME280;38519;52.540;13.410;2022-11-22T03:30:07;99491.69;;;-2.57;100.00
52625;BME280;38519;52.540;13.410;2022-11-22T03:32:32;99486.66;;;-2.64;100.00
52625;BME280;38519;52.540;13.410;2022-11-22T03:34:58;99489.97;;;-2.65;100.00
52625;BME280;38519;52.540;13.410;2022-11-22T03:37:23;99491.69;;;-2.57;100.00
52625;BME280;38519;52.540;13.410;2022-11-22T03:39:49;99497.38;;;-2.59;100.00
52625;BME280;38519;52.540;13.410;2022-11-22T03:42:14;99495.69;;;-2.59;100.00
52625;BME280;38519;52.540;13.410;2022-11-22T03:44:39;99496.19;;;-2.54;100.00
52625;BME280;38519;52.540;13.410;2022-11-22T03:47:05;99478.91;;;-2.57;100.00
52625;BME280;38519;52.540;13.410;2022-11-22T03:49:30;99478.66;;;-2.67;100.00
52625;BME280;38519;52.540;13.410;2022-11-22T03:51:55;99485.59;;;-2.66;100.00
52625;BME280;38519;52.540;13.410;2022-11-22T03:54:21;99476.56;;;-2.71;100.00
52625;BME280;38519;52.540;13.410;2022-11-22T03:56:46;99472.91;;;-2.73;100.00
52625;BME280;38519;52.540;13.410;2022-11-22T03:59:12;99465.31;;;-2.64;100.00
52625;BME280;38519;52.540;13.410;2022-11-22T04:01:37;99463.34;;;-2.67;100.00
52625;BME280;38519;52.540;13.410;2022-11-22T04:04:03;99463.78;;;-2.71;100.00
52625;BME280;38519;52.540;13.410;2022-11-22T04:06:28;99463.13;;;-2.77;100.00
52625;BME280;38519;52.540;13.410;2022-11-22T04:08:53;99459.41;;;-2.72;100.00
52625;BME280;38519;52.540;13.410;2022-11-22T04:11:19;99463.63;;;-2.72;100.00
52625;BME280;38519;52.540;13.410;2022-11-22T04:13:44;99460.47;;;-2.70;100.00
52625;BME280;38519;52.540;13.410;2022-11-22T04:16:28;99469.53;;;-2.65;100.00
52625;BME280;38519;52.540;13.410;2022-11-22T04:18:53;99468.72;;;-2.72;100.00
52625;BME280;38519;52.540;13.410;2022-11-22T04:21:19;99457.44;;;-2.75;100.00
52625;BME280;38519;52.540;13.410;2022-11-22T04:24:01;99448.88;;;-2.75;100.00
52625;BME280;38519;52.540;13.410;2022-11-22T04:26:45;99460.47;;;-2.70;100.00
52625;BME280;38519;52.540;13.410;2022-11-22T04:29:10;99460.91;;;-2.74;100.00
52625;BME280;38519;52.540;13.410;2022-11-22T04:31:36;99449.38;;;-2.62;100.00
52625;BME280;38519;52.540;13.410;2022-11-22T04:34:20;99467.28;;;-2.62;100.00
52625;BME280;38519;52.540;13.410;2022-11-22T04:36:45;99474.19;;;-2.61;100.00
52625;BME280;38519;52.540;13.410;2022-11-22T04:39:11;99468.56;;;-2.49;100.00
52625;BME280;38519;52.540;13.410;2022-11-22T04:41:36;99460.00;;;-2.50;100.00
52625;BME280;38519;52.540;13.410;2022-11-22T04:44:01;99457.59;;;-2.48;100.00
52625;BME280;38519;52.540;13.410;2022-11-22T04:46:45;99458.66;;;-2.46;100.00
52625;BME280;38519;52.540;13.410;2022-11-22T04:49:14;99458.31;;;-2.49;100.00
52625;BME280;38519;52.540;13.410;2022-11-22T04:51:39;99459.22;;;-2.49;100.00
52625;BME280;38519;52.540;13.410;2022-11-22T04:54:23;99452.19;;;-2.43;100.00
52625;BME280;38519;52.540;13.410;2022-11-22T04:56:48;99453.44;;;-2.39;100.00
52625;BME280;38519;52.540;13.410;2022-11-22T04:59:14;99448.75;;;-2.43;100.00
52625;BME280;38519;52.540;13.410;2022-11-22T05:01:39;99449.59;;;-2.51;100.00
52625;BME280;38519;52.540;13.410;2022-11-22T05:04:06;99448.56;;;-2.53;100.00
52625;BME280;38519;52.540;13.410;2022-11-22T05:06:31;99450.34;;;-2.52;100.00
52625;BME280;38519;52.540;13.410;2022-11-22T05:08:56;99443.44;;;-2.53;100.00
52625;BME280;38519;52.540;13.410;2022-11-22T05:11:22;99446.16;;;-2.52;100.00
52625;BME280;38519;52.540;13.410;2022-11-22T05:13:47;99453.84;;;-2.43;100.00
52625;BME280;38519;52.540;13.410;2022-11-22T05:16:13;99452.31;;;-2.50;100.00
52625;BME280;38519;52.540;13.410;2022-11-22T05:18:39;99445.44;;;-2.42;100.00
52625;BME280;38519;52.540;13.410;2022-11-22T05:21:05;99443.22;;;-2.39;100.00
52625;BME280;38519;52.540;13.410;2022-11-22T05:23:30;99450.66;;;-2.49;100.00
52625;BME280;38519;52.540;13.410;2022-11-22T05:26:14;99437.78;;;-2.42;100.00
52625;BME280;38519;52.540;13.410;2022-11-22T05:28:40;99442.28;;;-2.40;100.00
52625;BME280;38519;52.540;13.410;2022-11-22T05:31:06;99442.34;;;-2.31;100.00
52625;BME280;38519;52.540;13.410;2022-11-22T05:33:32;99439.31;;;-2.35;100.00
52625;BME280;38519;52.540;13.410;2022-11-22T05:35:58;99437.22;;;-2.31;100.00
52625;BME280;38519;52.540;13.410;2022-11-22T05:38:24;99443.81;;;-2.33;100.00
52625;BME280;38519;52.540;13.410;2022-11-22T05:40:49;99434.94;;;-2.36;100.00
52625;BME280;38519;52.540;13.410;2022-11-22T05:43:15;99440.34;;;-2.42;100.00
52625;BME280;38519;52.540;13.410;2022-11-22T05:45:40;99449.84;;;-2.32;100.00
52625;BME280;38519;52.540;13.410;2022-11-22T05:48:06;99447.69;;;-2.45;100.00
52625;BME280;38519;52.540;13.410;2022-11-22T05:50:31;99447.22;;;-2.41;100.00
52625;BME280;38519;52.540;13.410;2022-11-22T05:52:59;99446.66;;;-2.39;100.00
52625;BME280;38519;52.540;13.410;2022-11-22T05:55:24;99446.69;;;-2.30;100.00
52625;BME280;38519;52.540;13.410;2022-11-22T05:57:50;99437.50;;;-2.36;100.00
52625;BME280;38519;52.540;13.410;2022-11-22T06:00:15;99453.63;;;-2.29;100.00
52625;BME280;38519;52.540;13.410;2022-11-22T06:02:41;99451.47;;;-2.33;100.00
52625;BME280;38519;52.540;13.410;2022-11-22T06:05:06;99453.59;;;-2.38;100.00
52625;BME280;38519;52.540;13.410;2022-11-22T06:07:32;99458.25;;;-2.33;100.00
52625;BME280;38519;52.540;13.410;2022-11-22T06:09:57;99461.59;;;-2.26;100.00
52625;BME280;38519;52.540;13.410;2022-11-22T06:12:23;99463.69;;;-2.30;100.00
52625;BME280;38519;52.540;13.410;2022-11-22T06:14:48;99470.81;;;-2.19;100.00
52625;BME280;38519;52.540;13.410;2022-11-22T06:17:14;99472.31;;;-2.12;100.00
52625;BME280;38519;52.540;13.410;2022-11-22T06:19:39;99470.81;;;-2.19;100.00
52625;BME280;38519;52.540;13.410;2022-11-22T06:22:06;99469.50;;;-2.07;100.00
52625;BME280;38519;52.540;13.410;2022-11-22T06:24:31;99472.94;;;-2.15;100.00
52625;BME280;38519;52.540;13.410;2022-11-22T06:26:57;99482.41;;;-2.14;100.00
52625;BME280;38519;52.540;13.410;2022-11-22T06:29:22;99475.94;;;-2.10;100.00
52625;BME280;38519;52.540;13.410;2022-11-22T06:31:48;99477.44;;;-2.12;100.00
52625;BME280;38519;52.540;13.410;2022-11-22T06:34:13;99473.53;;;-2.09;100.00
52625;BME280;38519;52.540;13.410;2022-11-22T06:36:38;99476.06;;;-2.17;100.00
52625;BME280;38519;52.540;13.410;2022-11-22T06:39:04;99485.13;;;-2.12;100.00
52625;BME280;38519;52.540;13.410;2022-11-22T06:41:31;99491.19;;;-2.03;100.00
52625;BME280;38519;52.540;13.410;2022-11-22T06:43:57;99501.00;;;-1.99;100.00
52625;BME280;38519;52.540;13.410;2022-11-22T06:46:23;99490.38;;;-2.11;100.00
52625;BME280;38519;52.540;13.410;2022-11-22T06:48:50;99494.16;;;-2.07;100.00
52625;BME280;38519;52.540;13.410;2022-11-22T06:53:41;99503.81;;;-2.05;100.00
52625;BME280;38519;52.540;13.410;2022-11-22T06:56:08;99502.47;;;-2.01;100.00
52625;BME280;38519;52.540;13.410;2022-11-22T06:58:33;99508.44;;;-2.09;100.00
52625;BME280;38519;52.540;13.410;2022-11-22T07:01:44;99507.00;;;-1.98;100.00
52625;BME280;38519;52.540;13.410;2022-11-22T07:03:45;99499.47;;;-1.97;100.00
52625;BME280;38519;52.540;13.410;2022-11-22T07:06:12;99493.75;;;-2.03;100.00
52625;BME280;38519;52.540;13.410;2022-11-22T07:08:37;99502.34;;;-1.94;100.00
52625;BME280;38519;52.540;13.410;2022-11-22T07:11:04;99498.44;;;-1.99;100.00
52625;BME280;38519;52.540;13.410;2022-11-22T07:13:30;99496.63;;;-1.91;100.00
52625;BME280;38519;52.540;13.410;2022-11-22T07:15:56;99499.81;;;-1.85;100.00
52625;BME280;38519;52.540;13.410;2022-11-22T07:18:22;99508.53;;;-1.92;100.00
52625;BME280;38519;52.540;13.410;2022-11-22T07:20:47;99510.34;;;-1.91;100.00
52625;BME280;38519;52.540;13.410;2022-11-22T07:23:13;99518.03;;;-1.91;100.00
52625;BME280;38519;52.540;13.410;2022-11-22T07:25:49;99519.72;;;-1.83;100.00
52625;BME280;38519;52.540;13.410;2022-11-22T07:28:14;99514.44;;;-1.84;100.00
52625;BME280;38519;52.540;13.410;2022-11-22T07:30:40;99526.34;;;-1.85;100.00
52625;BME280;38519;52.540;13.410;2022-11-22T07:33:06;99522.56;;;-1.79;100.00
52625;BME280;38519;52.540;13.410;2022-11-22T07:35:32;99527.69;;;-1.79;100.00
52625;BME280;38519;52.540;13.410;2022-11-22T07:37:57;99524.97;;;-1.81;100.00
52625;BME280;38519;52.540;13.410;2022-11-22T07:40:23;99527.09;;;-1.77;100.00
52625;BME280;38519;52.540;13.410;2022-11-22T07:42:48;99524.25;;;-1.71;100.00
52625;BME280;38519;52.540;13.410;2022-11-22T07:45:13;99522.91;;;-1.68;100.00
52625;BME280;38519;52.540;13.410;2022-11-22T07:47:39;99511.47;;;-1.62;100.00
52625;BME280;38519;52.540;13.410;2022-11-22T07:50:04;99505.31;;;-1.65;100.00
52625;BME280;38519;52.540;13.410;2022-11-22T07:52:30;99502.28;;;-1.69;100.00
52625;BME280;38519;52.540;13.410;2022-11-22T07:54:55;99485.25;;;-1.69;100.00
52625;BME280;38519;52.540;13.410;2022-11-22T07:57:21;99492.66;;;-1.63;100.00
52625;BME280;38519;52.540;13.410;2022-11-22T07:59:46;99494.31;;;-1.63;100.00
52625;BME280;38519;52.540;13.410;2022-11-22T08:02:12;99493.41;;;-1.64;100.00
52625;BME280;38519;52.540;13.410;2022-11-22T08:04:37;99490.25;;;-1.61;100.00
52625;BME280;38519;52.540;13.410;2022-11-22T08:07:03;99482.56;;;-1.61;100.00
52625;BME280;38519;52.540;13.410;2022-11-22T08:09:28;99480.78;;;-1.54;100.00
52625;BME280;38519;52.540;13.410;2022-11-22T08:11:53;99469.19;;;-1.41;100.00
52625;BME280;38519;52.540;13.410;2022-11-22T08:14:19;99468.28;;;-1.42;100.00
52625;BME280;38519;52.540;13.410;2022-11-22T08:16:45;99465.00;;;-1.41;100.00
52625;BME280;38519;52.540;13.410;2022-11-22T08:19:11;99473.41;;;-1.42;100.00
52625;BME280;38519;52.540;13.410;2022-11-22T08:21:43;99462.88;;;-1.45;100.00
52625;BME280;38519;52.540;13.410;2022-11-22T08:24:08;99471.59;;;-1.43;100.00
52625;BME280;38519;52.540;13.410;2022-11-22T08:26:34;99466.78;;;-1.40;100.00
52625;BME280;38519;52.540;13.410;2022-11-22T08:28:59;99474.00;;;-1.44;100.00
52625;BME280;38519;52.540;13.410;2022-11-22T08:31:25;99471.44;;;-1.44;100.00
52625;BME280;38519;52.540;13.410;2022-11-22T08:33:52;99460.78;;;-1.40;100.00
52625;BME280;38519;52.540;13.410;2022-11-22T08:36:17;99452.47;;;-1.47;100.00
52625;BME280;38519;52.540;13.410;2022-11-22T08:38:43;99457.00;;;-1.35;100.00
52625;BME280;38519;52.540;13.410;2022-11-22T08:41:08;99457.16;;;-1.34;100.00
52625;BME280;38519;52.540;13.410;2022-11-22T08:43:34;99450.97;;;-1.44;100.00
52625;BME280;38519;52.540;13.410;2022-11-22T08:45:59;99465.16;;;-1.39;100.00
52625;BME280;38519;52.540;13.410;2022-11-22T08:48:26;99464.22;;;-1.40;100.00
52625;BME280;38519;52.540;13.410;2022-11-22T08:50:53;99466.50;;;-1.34;100.00
52625;BME280;38519;52.540;13.410;2022-11-22T08:53:20;99470.56;;;-1.27;100.00
52625;BME280;38519;52.540;13.410;2022-11-22T08:55:46;99474.78;;;-1.37;100.00
52625;BME280;38519;52.540;13.410;2022-11-22T08:58:11;99481.28;;;-1.23;100.00
52625;BME280;38519;52.540;13.410;2022-11-22T09:00:36;99486.84;;;-1.18;100.00
52625;BME280;38519;52.540;13.410;2022-11-22T09:03:02;99491.09;;;-1.19;100.00
52625;BME280;38519;52.540;13.410;2022-11-22T09:05:27;99503.72;;;-1.12;100.00
52625;BME280;38519;52.540;13.410;2022-11-22T09:07:54;99497.84;;;-1.11;100.00
52625;BME280;38519;52.540;13.410;2022-11-22T09:10:20;99505.25;;;-1.14;100.00
52625;BME280;38519;52.540;13.410;2022-11-22T09:12:45;99522.88;;;-0.99;100.00
52625;BME280;38519;52.540;13.410;2022-11-22T09:15:11;99521.50;;;-1.04;100.00
52625;BME280;38519;52.540;13.410;2022-11-22T09:17:38;99513.38;;;-1.00;100.00
52625;BME280;38519;52.540;13.410;2022-11-22T09:20:05;99521.66;;;-1.03;100.00
52625;BME280;38519;52.540;13.410;2022-11-22T09:22:30;99516.69;;;-0.93;100.00
52625;BME280;38519;52.540;13.410;2022-11-22T09:24:56;99516.09;;;-0.99;100.00
52625;BME280;38519;52.540;13.410;2022-11-22T09:27:21;99519.53;;;-0.98;100.00
52625;BME280;38519;52.540;13.410;2022-11-22T09:29:47;99521.66;;;-1.12;100.00
52625;BME280;38519;52.540;13.410;2022-11-22T09:32:12;99511.56;;;-1.01;100.00
52625;BME280;38519;52.540;13.410;2022-11-22T09:34:38;99509.59;;;-0.95;100.00
52625;BME280;38519;52.540;13.410;2022-11-22T09:37:03;99500.56;;;-0.83;100.00
52625;BME280;38519;52.540;13.410;2022-11-22T09:39:29;99506.28;;;-0.85;100.00
52625;BME280;38519;52.540;13.410;2022-11-22T09:44:30;99510.34;;;-0.87;100.00
52625;BME280;38519;52.540;13.410;2022-11-22T09:54:26;99542.44;;;-0.65;100.00
52625;BME280;38519;52.540;13.410;2022-11-22T09:56:54;99538.81;;;-0.58;100.00
52625;BME280;38519;52.540;13.410;2022-11-22T09:59:24;99536.44;;;-0.65;100.00
52625;BME280;38519;52.540;13.410;2022-11-22T10:01:53;99543.22;;;-0.57;100.00
52625;BME280;38519;52.540;13.410;2022-11-22T10:04:25;99537.47;;;-0.63;100.00
52625;BME280;38519;52.540;13.410;2022-11-22T10:06:53;99530.53;;;-0.64;100.00
52625;BME280;38519;52.540;13.410;2022-11-22T10:09:24;99533.69;;;-0.49;100.00
52625;BME280;38519;52.540;13.410;2022-11-22T10:12:06;99533.56;;;-0.51;100.00
52625;BME280;38519;52.540;13.410;2022-11-22T10:19:45;99538.19;;;-0.47;100.00
52625;BME280;38519;52.540;13.410;2022-11-22T10:22:15;99534.63;;;-0.58;100.00
52625;BME280;38519;52.540;13.410;2022-11-22T10:24:41;99537.91;;;-0.50;100.00
52625;BME280;38519;52.540;13.410;2022-11-22T10:27:11;99534.75;;;-0.47;100.00
52625;BME280;38519;52.540;13.410;2022-11-22T10:29:46;99534.31;;;-0.43;100.00
52625;BME280;38519;52.540;13.410;2022-11-22T10:32:19;99534.31;;;-0.43;100.00
52625;BME280;38519;52.540;13.410;2022-11-22T10:43:14;99541.78;;;-0.19;100.00
52625;BME280;38519;52.540;13.410;2022-11-22T10:45:46;99540.88;;;-0.19;100.00
52625;BME280;38519;52.540;13.410;2022-11-22T10:51:31;99552.59;;;-0.04;100.00
52625;BME280;38519;52.540;13.410;2022-11-22T11:01:17;99534.47;;;0.04;100.00
52625;BME280;38519;52.540;13.410;2022-11-22T11:03:44;99533.75;;;-0.13;100.00
52625;BME280;38519;52.540;13.410;2022-11-22T11:06:24;99544.41;;;0.09;100.00
52625;BME280;38519;52.540;13.410;2022-11-22T11:11:18;99545.88;;;0.16;100.00
52625;BME280;38519;52.540;13.410;2022-11-22T11:13:49;99542.13;;;0.12;100.00
52625;BME280;38519;52.540;13.410;2022-11-22T11:16:17;99535.75;;;0.17;100.00
52625;BME280;38519;52.540;13.410;2022-11-22T11:18:57;99534.06;;;0.27;100.00
52625;BME280;38519;52.540;13.410;2022-11-22T11:21:28;99520.94;;;0.24;100.00
52625;BME280;38519;52.540;13.410;2022-11-22T11:23:53;99515.81;;;0.24;100.00
52625;BME280;38519;52.540;13.410;2022-11-22T11:26:26;99520.22;;;0.16;100.00
52625;BME280;38519;52.540;13.410;2022-11-22T11:31:46;99509.56;;;0.30;100.00
52625;BME280;38519;52.540;13.410;2022-11-22T11:34:20;99512.44;;;0.33;100.00
52625;BME280;38519;52.540;13.410;2022-11-22T11:36:46;99503.50;;;0.39;100.00
52625;BME280;38519;52.540;13.410;2022-11-22T11:42:28;99506.44;;;0.52;100.00
52625;BME280;38519;52.540;13.410;2022-11-22T11:44:52;99508.66;;;0.58;100.00
52625;BME280;38519;52.540;13.410;2022-11-22T11:47:19;99505.78;;;0.63;100.00
52625;BME280;38519;52.540;13.410;2022-11-22T11:49:56;99504.78;;;0.52;100.00
52625;BME280;38519;52.540;13.410;2022-11-22T11:52:22;99515.16;;;0.63;100.00
52625;BME280;38519;52.540;13.410;2022-11-22T11:54:55;99516.03;;;0.63;100.00
52625;BME280;38519;52.540;13.410;2022-11-22T11:59:49;99516.66;;;0.61;100.00
52625;BME280;38519;52.540;13.410;2022-11-22T12:07:25;99510.41;;;0.48;100.00
52625;BME280;38519;52.540;13.410;2022-11-22T12:09:52;99510.31;;;0.66;100.00
52625;BME280;38519;52.540;13.410;2022-11-22T12:12:31;99505.66;;;0.53;100.00
52625;BME280;38519;52.540;13.410;2022-11-22T12:15:06;99514.22;;;0.62;100.00
52625;BME280;38519;52.540;13.410;2022-11-22T12:17:40;99515.47;;;0.57;100.00
52625;BME280;38519;52.540;13.410;2022-11-22T12:20:10;99522.00;;;0.53;100.00
52625;BME280;38519;52.540;13.410;2022-11-22T12:22:44;99516.13;;;0.73;100.00
52625;BME280;38519;52.540;13.410;2022-11-22T12:27:43;99516.50;;;0.87;100.00
52625;BME280;38519;52.540;13.410;2022-11-22T12:30:11;99524.31;;;0.69;100.00
52625;BME280;38519;52.540;13.410;2022-11-22T12:32:41;99502.16;;;0.61;100.00
52625;BME280;38519;52.540;13.410;2022-11-22T12:35:13;99496.13;;;0.80;100.00
52625;BME280;38519;52.540;13.410;2022-11-22T12:40:57;99494.06;;;0.76;100.00
52625;BME280;38519;52.540;13.410;2022-11-22T12:43:05;99479.88;;;0.70;100.00
52625;BME280;38519;52.540;13.410;2022-11-22T12:45:39;99483.84;;;0.86;100.00
52625;BME280;38519;52.540;13.410;2022-11-22T12:48:27;99480.66;;;0.69;100.00
52625;BME280;38519;52.540;13.410;2022-11-22T12:50:51;99486.91;;;0.63;100.00
52625;BME280;38519;52.540;13.410;2022-11-22T12:58:40;99498.13;;;0.73;100.00
52625;BME280;38519;52.540;13.410;2022-11-22T13:03:55;99504.47;;;0.77;100.00
52625;BME280;38519;52.540;13.410;2022-11-22T13:06:22;99506.91;;;0.76;100.00
52625;BME280;38519;52.540;13.410;2022-11-22T13:08:57;99493.09;;;0.84;100.00
52625;BME280;38519;52.540;13.410;2022-11-22T13:11:38;99485.78;;;0.69;100.00
52625;BME280;38519;52.540;13.410;2022-11-22T13:14:13;99480.78;;;0.71;100.00
52625;BME280;38519;52.540;13.410;2022-11-22T13:16:41;99481.81;;;0.73;100.00
52625;BME280;38519;52.540;13.410;2022-11-22T13:19:07;99475.38;;;0.68;100.00
52625;BME280;38519;52.540;13.410;2022-11-22T13:29:34;99466.06;;;0.79;100.00
52625;BME280;38519;52.540;13.410;2022-11-22T13:37:21;99470.97;;;0.67;100.00
52625;BME280;38519;52.540;13.410;2022-11-22T13:39:47;99478.69;;;0.67;100.00
52625;BME280;38519;52.540;13.410;2022-11-22T13:42:14;99485.28;;;0.73;100.00
52625;BME280;38519;52.540;13.410;2022-11-22T13:44:48;99484.13;;;0.89;100.00
52625;BME280;38519;52.540;13.410;2022-11-22T13:47:34;99487.03;;;0.83;100.00
52625;BME280;38519;52.540;13.410;2022-11-22T13:50:00;99490.03;;;0.88;100.00
52625;BME280;38519;52.540;13.410;2022-11-22T13:57:30;99486.88;;;0.82;100.00
52625;BME280;38519;52.540;13.410;2022-11-22T14:02:44;99479.88;;;0.89;100.00
52625;BME280;38519;52.540;13.410;2022-11-22T14:05:24;99482.94;;;0.85;100.00
52625;BME280;38519;52.540;13.410;2022-11-22T14:07:51;99481.75;;;0.82;100.00
52625;BME280;38519;52.540;13.410;2022-11-22T14:10:25;99476.75;;;0.83;100.00
52625;BME280;38519;52.540;13.410;2022-11-22T14:24:00;99479.03;;;0.80;100.00
52625;BME280;38519;52.540;13.410;2022-11-22T14:31:50;99496.50;;;0.74;100.00